sensor_id;sensor_type;location;lat;lon;timestamp;temperature;humidity
18456;DHT22;9357;49.900;8.208;2023-05-07T00:00:36;16.80;99.90
18456;DHT22;9357;49.900;8.208;2023-05-07T00:02:08;16.70;99.90
18456;DHT22;9357;49.900;8.208;2023-05-07T00:03:41;16.70;99.90
18456;DHT22;9357;49.900;8.208;2023-05-07T00:05:13;16.70;99.90
18456;DHT22;9357;49.900;8.208;2023-05-07T00:06:48;16.70;99.90
18456;DHT22;9357;49.900;8.208;2023-05-07T00:08:21;16.70;99.90
18456;DHT22;9357;49.900;8.208;2023-05-07T00:09:53;16.60;99.90
18456;DHT22;9357;49.900;8.208;2023-05-07T00:11:27;16.60;99.90
18456;DHT22;9357;49.900;8.208;2023-05-07T00:12:58;16.60;99.90
18456;DHT22;9357;49.900;8.208;2023-05-07T00:14:32;16.50;99.90
18456;DHT22;9357;49.900;8.208;2023-05-07T00:16:05;16.50;99.90
18456;DHT22;9357;49.900;8.208;2023-05-07T00:17:38;16.40;99.90
18456;DHT22;9357;49.900;8.208;2023-05-07T00:19:09;16.40;99.90
18456;DHT22;9357;49.900;8.208;2023-05-07T00:20:42;16.40;99.90
18456;DHT22;9357;49.900;8.208;2023-05-07T00:22:16;16.40;99.90
18456;DHT22;9357;49.900;8.208;2023-05-07T00:23:49;16.40;99.90
18456;DHT22;9357;49.900;8.208;2023-05-07T00:25:21;16.40;99.90
18456;DHT22;9357;49.900;8.208;2023-05-07T00:26:54;16.40;99.90
18456;DHT22;9357;49.900;8.208;2023-05-07T00:28:25;16.40;99.90
18456;DHT22;9357;49.900;8.208;2023-05-07T00:29:58;16.40;99.90
18456;DHT22;9357;49.900;8.208;2023-05-07T00:31:31;16.40;99.90
18456;DHT22;9357;49.900;8.208;2023-05-07T00:33:03;16.40;99.90
18456;DHT22;9357;49.900;8.208;2023-05-07T00:34:35;16.30;99.90
18456;DHT22;9357;49.900;8.208;2023-05-07T00:36:08;16.40;99.90
18456;DHT22;9357;49.900;8.208;2023-05-07T00:37:42;16.30;99.90
18456;DHT22;9357;49.900;8.208;2023-05-07T00:39:15;16.30;99.90
18456;DHT22;9357;49.900;8.208;2023-05-07T00:40:48;16.30;99.90
18456;DHT22;9357;49.900;8.208;2023-05-07T00:42:20;16.30;99.90
18456;DHT22;9357;49.900;8.208;2023-05-07T00:43:52;16.20;99.90
18456;DHT22;9357;49.900;8.208;2023-05-07T00:45:26;16.20;99.90
18456;DHT22;9357;49.900;8.208;2023-05-07T00:47:02;16.20;99.90
18456;DHT22;9357;49.900;8.208;2023-05-07T00:48:35;16.20;99.90
18456;DHT22;9357;49.900;8.208;2023-05-07T00:50:09;16.20;99.90
18456;DHT22;9357;49.900;8.208;2023-05-07T00:51:42;16.20;99.90
18456;DHT22;9357;49.900;8.208;2023-05-07T00:53:16;16.20;99.90
18456;DHT22;9357;49.900;8.208;2023-05-07T00:54:48;16.30;99.90
18456;DHT22;9357;49.900;8.208;2023-05-07T00:56:21;16.20;99.90
18456;DHT22;9357;49.900;8.208;2023-05-07T00:57:54;16.20;99.90
18456;DHT22;9357;49.900;8.208;2023-05-07T00:59:27;16.20;99.90
18456;DHT22;9357;49.900;8.208;2023-05-07T01:01:01;16.20;99.90
18456;DHT22;9357;49.900;8.208;2023-05-07T01:02:35;16.20;99.90
18456;DHT22;9357;49.900;8.208;2023-05-07T01:04:07;16.20;99.90
18456;DHT22;9357;49.900;8.208;2023-05-07T01:05:41;16.20;99.90
18456;DHT22;9357;49.900;8.208;2023-05-07T01:07:15;16.20;99.90
18456;DHT22;9357;49.900;8.208;2023-05-07T01:08:49;16.20;99.90
18456;DHT22;9357;49.900;8.208;2023-05-07T01:10:24;16.20;99.90
18456;DHT22;9357;49.900;8.208;2023-05-07T01:11:59;16.20;99.90
18456;DHT22;9357;49.900;8.208;2023-05-07T01:13:32;16.20;99.90
18456;DHT22;9357;49.900;8.208;2023-05-07T01:15:08;16.20;99.90
18456;DHT22;9357;49.900;8.208;2023-05-07T01:16:40;16.10;99.90
18456;DHT22;9357;49.900;8.208;2023-05-07T01:18:14;16.10;99.90
18456;DHT22;9357;49.900;8.208;2023-05-07T01:19:47;16.10;99.90
18456;DHT22;9357;49.900;8.208;2023-05-07T01:21:25;16.10;99.90
18456;DHT22;9357;49.900;8.208;2023-05-07T01:23:00;16.10;99.90
18456;DHT22;9357;49.900;8.208;2023-05-07T01:24:33;16.10;99.90
18456;DHT22;9357;49.900;8.208;2023-05-07T01:26:06;16.10;99.90
18456;DHT22;9357;49.900;8.208;2023-05-07T01:27:39;16.00;99.90
18456;DHT22;9357;49.900;8.208;2023-05-07T01:29:12;16.00;99.90
18456;DHT22;9357;49.900;8.208;2023-05-07T01:30:48;16.00;99.90
18456;DHT22;9357;49.900;8.208;2023-05-07T01:32:27;16.00;99.90
18456;DHT22;9357;49.900;8.208;2023-05-07T01:34:01;15.90;99.90
18456;DHT22;9357;49.900;8.208;2023-05-07T01:35:38;15.90;99.90
18456;DHT22;9357;49.900;8.208;2023-05-07T01:37:11;15.90;99.90
18456;DHT22;9357;49.900;8.208;2023-05-07T01:38:46;15.90;99.90
18456;DHT22;9357;49.900;8.208;2023-05-07T01:40:19;15.90;99.90
18456;DHT22;9357;49.900;8.208;2023-05-07T01:41:52;15.90;99.90
18456;DHT22;9357;49.900;8.208;2023-05-07T01:43:24;15.90;99.90
18456;DHT22;9357;49.900;8.208;2023-05-07T01:44:57;15.90;99.90
18456;DHT22;9357;49.900;8.208;2023-05-07T01:46:31;15.80;99.90
18456;DHT22;9357;49.900;8.208;2023-05-07T01:48:06;15.80;99.90
18456;DHT22;9357;49.900;8.208;2023-05-07T01:49:39;15.70;99.90
18456;DHT22;9357;49.900;8.208;2023-05-07T01:51:12;15.80;99.90
18456;DHT22;9357;49.900;8.208;2023-05-07T01:52:45;15.80;99.90
18456;DHT22;9357;49.900;8.208;2023-05-07T01:54:19;15.70;99.90
18456;DHT22;9357;49.900;8.208;2023-05-07T01:55:52;15.70;99.90
18456;DHT22;9357;49.900;8.208;2023-05-07T01:57:25;15.70;99.90
18456;DHT22;9357;49.900;8.208;2023-05-07T01:58:57;15.70;99.90
18456;DHT22;9357;49.900;8.208;2023-05-07T02:00:29;15.60;99.90
18456;DHT22;9357;49.900;8.208;2023-05-07T02:02:02;15.70;99.90
18456;DHT22;9357;49.900;8.208;2023-05-07T02:03:34;15.70;99.90
18456;DHT22;9357;49.900;8.208;2023-05-07T02:05:08;15.70;99.90
18456;DHT22;9357;49.900;8.208;2023-05-07T02:06:40;15.70;99.90
18456;DHT22;9357;49.900;8.208;2023-05-07T02:08:12;15.70;99.90
18456;DHT22;9357;49.900;8.208;2023-05-07T02:09:47;15.60;99.90
18456;DHT22;9357;49.900;8.208;2023-05-07T02:11:18;15.60;99.90
18456;DHT22;9357;49.900;8.208;2023-05-07T02:12:51;15.70;99.90
18456;DHT22;9357;49.900;8.208;2023-05-07T02:14:23;15.60;99.90
18456;DHT22;9357;49.900;8.208;2023-05-07T02:15:57;15.60;99.90
18456;DHT22;9357;49.900;8.208;2023-05-07T02:17:29;15.70;99.90
18456;DHT22;9357;49.900;8.208;2023-05-07T02:19:04;15.70;99.90
18456;DHT22;9357;49.900;8.208;2023-05-07T02:20:36;15.60;99.90
18456;DHT22;9357;49.900;8.208;2023-05-07T02:22:10;15.60;99.90
18456;DHT22;9357;49.900;8.208;2023-05-07T02:23:41;15.60;99.90
18456;DHT22;9357;49.900;8.208;2023-05-07T02:25:15;15.70;99.90
18456;DHT22;9357;49.900;8.208;2023-05-07T02:26:47;15.60;99.90
18456;DHT22;9357;49.900;8.208;2023-05-07T02:28:20;15.60;99.90
18456;DHT22;9357;49.900;8.208;2023-05-07T02:29:52;15.60;99.90
18456;DHT22;9357;49.900;8.208;2023-05-07T02:31:26;15.70;99.90
18456;DHT22;9357;49.900;8.208;2023-05-07T02:32:58;15.60;99.90
18456;DHT22;9357;49.900;8.208;2023-05-07T02:34:31;15.60;99.90
18456;DHT22;9357;49.900;8.208;2023-05-07T02:36:07;15.70;99.90
18456;DHT22;9357;49.900;8.208;2023-05-07T02:37:40;15.70;99.90
18456;DHT22;9357;49.900;8.208;2023-05-07T02:39:13;15.60;99.90
18456;DHT22;9357;49.900;8.208;2023-05-07T02:40:48;15.60;99.90
18456;DHT22;9357;49.900;8.208;2023-05-07T02:42:21;15.60;99.90
18456;DHT22;9357;49.900;8.208;2023-05-07T02:43:53;15.70;99.90
18456;DHT22;9357;49.900;8.208;2023-05-07T02:45:26;15.70;99.90
18456;DHT22;9357;49.900;8.208;2023-05-07T02:46:59;15.60;99.90
18456;DHT22;9357;49.900;8.208;2023-05-07T02:48:31;15.60;99.90
18456;DHT22;9357;49.900;8.208;2023-05-07T02:50:05;15.70;99.90
18456;DHT22;9357;49.900;8.208;2023-05-07T02:51:37;15.70;99.90
18456;DHT22;9357;49.900;8.208;2023-05-07T02:53:09;15.60;99.90
18456;DHT22;9357;49.900;8.208;2023-05-07T02:54:42;15.70;99.90
18456;DHT22;9357;49.900;8.208;2023-05-07T02:56:16;15.60;99.90
18456;DHT22;9357;49.900;8.208;2023-05-07T02:57:48;15.70;99.90
18456;DHT22;9357;49.900;8.208;2023-05-07T02:59:21;15.70;99.90
18456;DHT22;9357;49.900;8.208;2023-05-07T03:00:54;15.70;99.90
18456;DHT22;9357;49.900;8.208;2023-05-07T03:02:27;15.70;99.90
18456;DHT22;9357;49.900;8.208;2023-05-07T03:03:58;15.70;99.90
18456;DHT22;9357;49.900;8.208;2023-05-07T03:05:31;15.70;99.90
18456;DHT22;9357;49.900;8.208;2023-05-07T03:07:03;15.70;99.90
18456;DHT22;9357;49.900;8.208;2023-05-07T03:08:36;15.70;99.90
18456;DHT22;9357;49.900;8.208;2023-05-07T03:10:09;15.70;99.90
18456;DHT22;9357;49.900;8.208;2023-05-07T03:11:43;15.70;99.90
18456;DHT22;9357;49.900;8.208;2023-05-07T03:13:16;15.80;99.90
18456;DHT22;9357;49.900;8.208;2023-05-07T03:14:49;15.80;99.90
18456;DHT22;9357;49.900;8.208;2023-05-07T03:16:22;15.80;99.90
18456;DHT22;9357;49.900;8.208;2023-05-07T03:17:55;15.80;99.90
18456;DHT22;9357;49.900;8.208;2023-05-07T03:19:27;15.80;99.90
18456;DHT22;9357;49.900;8.208;2023-05-07T03:20:59;15.80;99.90
18456;DHT22;9357;49.900;8.208;2023-05-07T03:22:32;15.80;99.90
18456;DHT22;9357;49.900;8.208;2023-05-07T03:24:05;15.80;99.90
18456;DHT22;9357;49.900;8.208;2023-05-07T03:25:37;15.70;99.90
18456;DHT22;9357;49.900;8.208;2023-05-07T03:27:11;15.80;99.90
18456;DHT22;9357;49.900;8.208;2023-05-07T03:28:44;15.70;99.90
18456;DHT22;9357;49.900;8.208;2023-05-07T03:30:17;15.70;99.90
18456;DHT22;9357;49.900;8.208;2023-05-07T03:31:48;15.70;99.90
18456;DHT22;9357;49.900;8.208;2023-05-07T03:33:21;15.70;99.90
18456;DHT22;9357;49.900;8.208;2023-05-07T03:34:53;15.70;99.90
18456;DHT22;9357;49.900;8.208;2023-05-07T03:36:27;15.70;99.90
18456;DHT22;9357;49.900;8.208;2023-05-07T03:38:00;15.70;99.90
18456;DHT22;9357;49.900;8.208;2023-05-07T03:39:33;15.70;99.90
18456;DHT22;9357;49.900;8.208;2023-05-07T03:41:05;15.60;99.90
18456;DHT22;9357;49.900;8.208;2023-05-07T03:42:39;15.60;99.90
18456;DHT22;9357;49.900;8.208;2023-05-07T03:44:11;15.60;99.90
18456;DHT22;9357;49.900;8.208;2023-05-07T03:45:43;15.60;99.90
18456;DHT22;9357;49.900;8.208;2023-05-07T03:47:16;15.60;99.90
18456;DHT22;9357;49.900;8.208;2023-05-07T03:48:48;15.60;99.90
18456;DHT22;9357;49.900;8.208;2023-05-07T03:50:21;15.60;99.90
18456;DHT22;9357;49.900;8.208;2023-05-07T03:51:53;15.50;99.90
18456;DHT22;9357;49.900;8.208;2023-05-07T03:53:26;15.50;99.90
18456;DHT22;9357;49.900;8.208;2023-05-07T03:54:57;15.50;99.90
18456;DHT22;9357;49.900;8.208;2023-05-07T03:56:30;15.60;99.90
18456;DHT22;9357;49.900;8.208;2023-05-07T03:58:04;15.50;99.90
18456;DHT22;9357;49.900;8.208;2023-05-07T03:59:36;15.50;99.90
18456;DHT22;9357;49.900;8.208;2023-05-07T04:01:09;15.50;99.90
18456;DHT22;9357;49.900;8.208;2023-05-07T04:02:42;15.50;99.90
18456;DHT22;9357;49.900;8.208;2023-05-07T04:04:15;15.50;99.90
18456;DHT22;9357;49.900;8.208;2023-05-07T04:05:47;15.50;99.90
18456;DHT22;9357;49.900;8.208;2023-05-07T04:07:20;15.50;99.90
18456;DHT22;9357;49.900;8.208;2023-05-07T04:08:52;15.50;99.90
18456;DHT22;9357;49.900;8.208;2023-05-07T04:10:25;15.50;99.90
18456;DHT22;9357;49.900;8.208;2023-05-07T04:11:57;15.50;99.90
18456;DHT22;9357;49.900;8.208;2023-05-07T04:13:31;15.50;99.90
18456;DHT22;9357;49.900;8.208;2023-05-07T04:15:05;15.40;99.90
18456;DHT22;9357;49.900;8.208;2023-05-07T04:16:36;15.40;99.90
18456;DHT22;9357;49.900;8.208;2023-05-07T04:18:09;15.40;99.90
18456;DHT22;9357;49.900;8.208;2023-05-07T04:19:42;15.40;99.90
18456;DHT22;9357;49.900;8.208;2023-05-07T04:21:17;15.40;99.90
18456;DHT22;9357;49.900;8.208;2023-05-07T04:22:50;15.40;99.90
18456;DHT22;9357;49.900;8.208;2023-05-07T04:24:23;15.40;99.90
18456;DHT22;9357;49.900;8.208;2023-05-07T04:25:56;15.40;99.90
18456;DHT22;9357;49.900;8.208;2023-05-07T04:27:29;15.40;99.90
18456;DHT22;9357;49.900;8.208;2023-05-07T04:29:03;15.40;99.90
18456;DHT22;9357;49.900;8.208;2023-05-07T04:30:35;15.40;99.90
18456;DHT22;9357;49.900;8.208;2023-05-07T04:32:08;15.40;99.90
18456;DHT22;9357;49.900;8.208;2023-05-07T04:33:42;15.40;99.90
18456;DHT22;9357;49.900;8.208;2023-05-07T04:35:14;15.50;99.90
18456;DHT22;9357;49.900;8.208;2023-05-07T04:36:46;15.40;99.90
18456;DHT22;9357;49.900;8.208;2023-05-07T04:38:19;15.50;99.90
18456;DHT22;9357;49.900;8.208;2023-05-07T04:39:51;15.50;99.90
18456;DHT22;9357;49.900;8.208;2023-05-07T04:41:24;15.50;99.90
18456;DHT22;9357;49.900;8.208;2023-05-07T04:42:56;15.50;99.90
18456;DHT22;9357;49.900;8.208;2023-05-07T04:44:30;15.50;99.90
18456;DHT22;9357;49.900;8.208;2023-05-07T04:46:03;15.50;99.90
18456;DHT22;9357;49.900;8.208;2023-05-07T04:47:36;15.50;99.90
18456;DHT22;9357;49.900;8.208;2023-05-07T04:49:08;15.50;99.90
18456;DHT22;9357;49.900;8.208;2023-05-07T04:50:41;15.50;99.90
18456;DHT22;9357;49.900;8.208;2023-05-07T04:52:14;15.50;99.90
18456;DHT22;9357;49.900;8.208;2023-05-07T04:53:48;15.50;99.90
18456;DHT22;9357;49.900;8.208;2023-05-07T04:55:21;15.50;99.90
18456;DHT22;9357;49.900;8.208;2023-05-07T04:56:53;15.50;99.90
18456;DHT22;9357;49.900;8.208;2023-05-07T04:58:27;15.50;99.90
18456;DHT22;9357;49.900;8.208;2023-05-07T05:00:05;15.50;99.90
18456;DHT22;9357;49.900;8.208;2023-05-07T05:01:40;15.50;99.90
18456;DHT22;9357;49.900;8.208;2023-05-07T05:03:13;15.50;99.90
18456;DHT22;9357;49.900;8.208;2023-05-07T05:04:45;15.50;99.90
18456;DHT22;9357;49.900;8.208;2023-05-07T05:06:17;15.50;99.90
18456;DHT22;9357;49.900;8.208;2023-05-07T05:07:50;15.50;99.90
18456;DHT22;9357;49.900;8.208;2023-05-07T05:09:23;15.50;99.90
18456;DHT22;9357;49.900;8.208;2023-05-07T05:10:56;15.50;99.90
18456;DHT22;9357;49.900;8.208;2023-05-07T05:12:29;15.50;99.90
18456;DHT22;9357;49.900;8.208;2023-05-07T05:14:01;15.50;99.90
18456;DHT22;9357;49.900;8.208;2023-05-07T05:15:35;15.50;99.90
18456;DHT22;9357;49.900;8.208;2023-05-07T05:17:07;15.50;99.90
18456;DHT22;9357;49.900;8.208;2023-05-07T05:18:39;15.60;99.90
18456;DHT22;9357;49.900;8.208;2023-05-07T05:20:12;15.60;99.90
18456;DHT22;9357;49.900;8.208;2023-05-07T05:21:45;15.60;99.90
18456;DHT22;9357;49.900;8.208;2023-05-07T05:23:18;15.60;99.90
18456;DHT22;9357;49.900;8.208;2023-05-07T05:24:51;15.60;99.90
18456;DHT22;9357;49.900;8.208;2023-05-07T05:26:24;15.60;99.90
18456;DHT22;9357;49.900;8.208;2023-05-07T05:27:57;15.60;99.90
18456;DHT22;9357;49.900;8.208;2023-05-07T05:29:30;15.60;99.90
18456;DHT22;9357;49.900;8.208;2023-05-07T05:31:05;15.70;99.90
18456;DHT22;9357;49.900;8.208;2023-05-07T05:32:37;15.70;99.90
18456;DHT22;9357;49.900;8.208;2023-05-07T05:34:10;15.70;99.90
18456;DHT22;9357;49.900;8.208;2023-05-07T05:35:43;15.70;99.90
18456;DHT22;9357;49.900;8.208;2023-05-07T05:37:16;15.70;99.90
18456;DHT22;9357;49.900;8.208;2023-05-07T05:38:48;15.70;99.90
18456;DHT22;9357;49.900;8.208;2023-05-07T05:40:21;15.70;99.90
18456;DHT22;9357;49.900;8.208;2023-05-07T05:41:53;15.80;99.90
18456;DHT22;9357;49.900;8.208;2023-05-07T05:43:25;15.80;99.90
18456;DHT22;9357;49.900;8.208;2023-05-07T05:44:58;15.80;99.90
18456;DHT22;9357;49.900;8.208;2023-05-07T05:46:32;15.90;99.90
18456;DHT22;9357;49.900;8.208;2023-05-07T05:48:07;15.90;99.90
18456;DHT22;9357;49.900;8.208;2023-05-07T05:49:41;15.90;99.90
18456;DHT22;9357;49.900;8.208;2023-05-07T05:51:14;16.00;99.90
18456;DHT22;9357;49.900;8.208;2023-05-07T05:52:47;16.00;99.90
18456;DHT22;9357;49.900;8.208;2023-05-07T05:54:20;16.00;99.90
18456;DHT22;9357;49.900;8.208;2023-05-07T05:55:53;16.10;99.90
18456;DHT22;9357;49.900;8.208;2023-05-07T05:57:25;16.10;99.90
18456;DHT22;9357;49.900;8.208;2023-05-07T05:58:59;16.10;99.90
18456;DHT22;9357;49.900;8.208;2023-05-07T06:00:32;16.10;99.90
18456;DHT22;9357;49.900;8.208;2023-05-07T06:02:07;16.10;99.90
18456;DHT22;9357;49.900;8.208;2023-05-07T06:03:39;16.20;99.90
18456;DHT22;9357;49.900;8.208;2023-05-07T06:05:12;16.20;99.90
18456;DHT22;9357;49.900;8.208;2023-05-07T06:06:45;16.20;99.90
18456;DHT22;9357;49.900;8.208;2023-05-07T06:08:18;16.20;99.90
18456;DHT22;9357;49.900;8.208;2023-05-07T06:09:51;16.20;99.90
18456;DHT22;9357;49.900;8.208;2023-05-07T06:11:24;16.30;99.90
18456;DHT22;9357;49.900;8.208;2023-05-07T06:12:56;16.30;99.90
18456;DHT22;9357;49.900;8.208;2023-05-07T06:14:29;16.30;99.90
18456;DHT22;9357;49.900;8.208;2023-05-07T06:16:02;16.30;99.90
18456;DHT22;9357;49.900;8.208;2023-05-07T06:17:40;16.30;99.90
18456;DHT22;9357;49.900;8.208;2023-05-07T06:19:12;16.30;99.90
18456;DHT22;9357;49.900;8.208;2023-05-07T06:20:45;16.50;99.90
18456;DHT22;9357;49.900;8.208;2023-05-07T06:22:18;16.40;99.90
18456;DHT22;9357;49.900;8.208;2023-05-07T06:23:51;16.40;99.90
18456;DHT22;9357;49.900;8.208;2023-05-07T06:25:23;16.40;99.90
18456;DHT22;9357;49.900;8.208;2023-05-07T06:26:56;16.40;99.90
18456;DHT22;9357;49.900;8.208;2023-05-07T06:28:29;16.50;99.90
18456;DHT22;9357;49.900;8.208;2023-05-07T06:30:07;16.40;99.90
18456;DHT22;9357;49.900;8.208;2023-05-07T06:31:41;16.50;99.90
18456;DHT22;9357;49.900;8.208;2023-05-07T06:33:15;16.50;99.90
18456;DHT22;9357;49.900;8.208;2023-05-07T06:34:48;16.50;99.90
18456;DHT22;9357;49.900;8.208;2023-05-07T06:36:20;16.50;99.90
18456;DHT22;9357;49.900;8.208;2023-05-07T06:37:53;16.50;99.90
18456;DHT22;9357;49.900;8.208;2023-05-07T06:39:26;16.60;99.90
18456;DHT22;9357;49.900;8.208;2023-05-07T06:40:59;16.60;99.90
18456;DHT22;9357;49.900;8.208;2023-05-07T06:42:31;16.60;99.90
18456;DHT22;9357;49.900;8.208;2023-05-07T06:44:04;16.60;99.90
18456;DHT22;9357;49.900;8.208;2023-05-07T06:45:37;16.60;99.90
18456;DHT22;9357;49.900;8.208;2023-05-07T06:47:10;16.60;99.90
18456;DHT22;9357;49.900;8.208;2023-05-07T06:48:47;16.60;99.90
18456;DHT22;9357;49.900;8.208;2023-05-07T06:50:20;16.60;99.90
18456;DHT22;9357;49.900;8.208;2023-05-07T06:51:53;16.70;99.90
18456;DHT22;9357;49.900;8.208;2023-05-07T06:53:25;16.70;99.90
18456;DHT22;9357;49.900;8.208;2023-05-07T06:54:59;16.70;99.90
18456;DHT22;9357;49.900;8.208;2023-05-07T06:56:32;16.70;99.90
18456;DHT22;9357;49.900;8.208;2023-05-07T06:58:04;16.70;99.90
18456;DHT22;9357;49.900;8.208;2023-05-07T06:59:37;16.70;99.90
18456;DHT22;9357;49.900;8.208;2023-05-07T07:01:10;16.70;99.90
18456;DHT22;9357;49.900;8.208;2023-05-07T07:02:42;16.70;99.90
18456;DHT22;9357;49.900;8.208;2023-05-07T07:04:17;16.70;99.90
18456;DHT22;9357;49.900;8.208;2023-05-07T07:05:51;16.70;99.90
18456;DHT22;9357;49.900;8.208;2023-05-07T07:07:24;16.70;99.90
18456;DHT22;9357;49.900;8.208;2023-05-07T07:08:57;16.70;99.90
18456;DHT22;9357;49.900;8.208;2023-05-07T07:10:30;16.70;99.90
18456;DHT22;9357;49.900;8.208;2023-05-07T07:12:03;16.80;99.90
18456;DHT22;9357;49.900;8.208;2023-05-07T07:13:36;16.80;99.90
18456;DHT22;9357;49.900;8.208;2023-05-07T07:15:09;16.80;99.90
18456;DHT22;9357;49.900;8.208;2023-05-07T07:16:42;16.80;99.90
18456;DHT22;9357;49.900;8.208;2023-05-07T07:18:14;16.90;99.90
18456;DHT22;9357;49.900;8.208;2023-05-07T07:19:48;16.80;99.90
18456;DHT22;9357;49.900;8.208;2023-05-07T07:21:21;16.90;99.90
18456;DHT22;9357;49.900;8.208;2023-05-07T07:22:53;16.80;99.90
18456;DHT22;9357;49.900;8.208;2023-05-07T07:24:26;16.90;99.90
18456;DHT22;9357;49.900;8.208;2023-05-07T07:25:58;16.90;99.90
18456;DHT22;9357;49.900;8.208;2023-05-07T07:27:31;16.90;99.90
18456;DHT22;9357;49.900;8.208;2023-05-07T07:29:02;16.90;99.90
18456;DHT22;9357;49.900;8.208;2023-05-07T07:30:35;16.90;99.90
18456;DHT22;9357;49.900;8.208;2023-05-07T07:32:08;17.00;99.90
18456;DHT22;9357;49.900;8.208;2023-05-07T07:33:41;16.90;99.90
18456;DHT22;9357;49.900;8.208;2023-05-07T07:35:15;17.00;99.90
18456;DHT22;9357;49.900;8.208;2023-05-07T07:36:48;17.00;99.90
18456;DHT22;9357;49.900;8.208;2023-05-07T07:38:20;17.00;99.90
18456;DHT22;9357;49.900;8.208;2023-05-07T07:39:54;17.00;99.90
18456;DHT22;9357;49.900;8.208;2023-05-07T07:41:27;17.00;99.90
18456;DHT22;9357;49.900;8.208;2023-05-07T07:43:00;17.00;99.90
18456;DHT22;9357;49.900;8.208;2023-05-07T07:44:33;17.00;99.90
18456;DHT22;9357;49.900;8.208;2023-05-07T07:46:05;17.00;99.90
18456;DHT22;9357;49.900;8.208;2023-05-07T07:47:39;17.00;99.90
18456;DHT22;9357;49.900;8.208;2023-05-07T07:49:11;17.00;99.90
18456;DHT22;9357;49.900;8.208;2023-05-07T07:50:48;17.00;99.90
18456;DHT22;9357;49.900;8.208;2023-05-07T07:52:21;17.00;99.90
18456;DHT22;9357;49.900;8.208;2023-05-07T07:53:54;17.00;99.90
18456;DHT22;9357;49.900;8.208;2023-05-07T07:55:27;17.00;99.90
18456;DHT22;9357;49.900;8.208;2023-05-07T07:56:59;17.10;99.90
18456;DHT22;9357;49.900;8.208;2023-05-07T07:58:32;17.00;99.90
18456;DHT22;9357;49.900;8.208;2023-05-07T08:00:07;17.00;99.90
18456;DHT22;9357;49.900;8.208;2023-05-07T08:01:41;17.10;99.90
18456;DHT22;9357;49.900;8.208;2023-05-07T08:03:14;17.10;99.90
18456;DHT22;9357;49.900;8.208;2023-05-07T08:04:48;17.10;99.90
18456;DHT22;9357;49.900;8.208;2023-05-07T08:06:22;17.10;99.90
18456;DHT22;9357;49.900;8.208;2023-05-07T08:07:55;17.20;99.90
18456;DHT22;9357;49.900;8.208;2023-05-07T08:09:27;17.20;99.90
18456;DHT22;9357;49.900;8.208;2023-05-07T08:11:00;17.20;99.90
18456;DHT22;9357;49.900;8.208;2023-05-07T08:12:33;17.20;99.90
18456;DHT22;9357;49.900;8.208;2023-05-07T08:14:06;17.20;99.90
18456;DHT22;9357;49.900;8.208;2023-05-07T08:15:39;17.30;99.90
18456;DHT22;9357;49.900;8.208;2023-05-07T08:17:12;17.30;99.90
18456;DHT22;9357;49.900;8.208;2023-05-07T08:18:47;17.30;99.90
18456;DHT22;9357;49.900;8.208;2023-05-07T08:20:20;17.30;99.90
18456;DHT22;9357;49.900;8.208;2023-05-07T08:21:54;17.40;99.90
18456;DHT22;9357;49.900;8.208;2023-05-07T08:23:27;17.40;99.90
18456;DHT22;9357;49.900;8.208;2023-05-07T08:25:00;17.40;99.90
18456;DHT22;9357;49.900;8.208;2023-05-07T08:26:33;17.40;99.90
18456;DHT22;9357;49.900;8.208;2023-05-07T08:28:07;17.50;99.90
18456;DHT22;9357;49.900;8.208;2023-05-07T08:29:40;17.50;99.90
18456;DHT22;9357;49.900;8.208;2023-05-07T08:31:13;17.60;99.90
18456;DHT22;9357;49.900;8.208;2023-05-07T08:32:46;17.60;99.90
18456;DHT22;9357;49.900;8.208;2023-05-07T08:34:19;17.60;99.90
18456;DHT22;9357;49.900;8.208;2023-05-07T08:35:51;17.70;99.90
18456;DHT22;9357;49.900;8.208;2023-05-07T08:37:26;17.80;99.90
18456;DHT22;9357;49.900;8.208;2023-05-07T08:38:59;17.80;99.90
18456;DHT22;9357;49.900;8.208;2023-05-07T08:40:36;17.80;99.90
18456;DHT22;9357;49.900;8.208;2023-05-07T08:42:09;17.90;99.90
18456;DHT22;9357;49.900;8.208;2023-05-07T08:43:46;18.00;99.90
18456;DHT22;9357;49.900;8.208;2023-05-07T08:45:20;18.00;99.90
18456;DHT22;9357;49.900;8.208;2023-05-07T08:46:53;18.10;99.90
18456;DHT22;9357;49.900;8.208;2023-05-07T08:48:29;18.10;99.90
18456;DHT22;9357;49.900;8.208;2023-05-07T08:50:02;18.10;99.90
18456;DHT22;9357;49.900;8.208;2023-05-07T08:51:35;18.20;99.90
18456;DHT22;9357;49.900;8.208;2023-05-07T08:53:10;18.20;99.90
18456;DHT22;9357;49.900;8.208;2023-05-07T08:54:43;18.30;99.90
18456;DHT22;9357;49.900;8.208;2023-05-07T08:56:16;18.30;99.90
18456;DHT22;9357;49.900;8.208;2023-05-07T08:57:52;18.30;99.90
18456;DHT22;9357;49.900;8.208;2023-05-07T08:59:25;18.40;99.90
18456;DHT22;9357;49.900;8.208;2023-05-07T09:00:59;18.40;99.90
18456;DHT22;9357;49.900;8.208;2023-05-07T09:02:33;18.50;99.90
18456;DHT22;9357;49.900;8.208;2023-05-07T09:04:07;18.50;99.90
18456;DHT22;9357;49.900;8.208;2023-05-07T09:05:41;18.60;99.90
18456;DHT22;9357;49.900;8.208;2023-05-07T09:07:15;18.60;99.90
18456;DHT22;9357;49.900;8.208;2023-05-07T09:08:53;18.70;99.90
18456;DHT22;9357;49.900;8.208;2023-05-07T09:10:26;18.70;99.90
18456;DHT22;9357;49.900;8.208;2023-05-07T09:11:58;18.70;99.90
18456;DHT22;9357;49.900;8.208;2023-05-07T09:13:31;18.70;99.90
18456;DHT22;9357;49.900;8.208;2023-05-07T09:15:05;18.80;99.90
18456;DHT22;9357;49.900;8.208;2023-05-07T09:16:38;18.80;99.90
18456;DHT22;9357;49.900;8.208;2023-05-07T09:18:12;18.90;99.90
18456;DHT22;9357;49.900;8.208;2023-05-07T09:19:47;19.00;99.90
18456;DHT22;9357;49.900;8.208;2023-05-07T09:21:21;19.00;99.90
18456;DHT22;9357;49.900;8.208;2023-05-07T09:22:55;19.10;99.90
18456;DHT22;9357;49.900;8.208;2023-05-07T09:24:30;19.00;99.90
18456;DHT22;9357;49.900;8.208;2023-05-07T09:26:07;19.10;99.90
18456;DHT22;9357;49.900;8.208;2023-05-07T09:27:43;19.20;99.90
18456;DHT22;9357;49.900;8.208;2023-05-07T09:29:16;19.20;99.90
18456;DHT22;9357;49.900;8.208;2023-05-07T09:30:50;19.30;99.90
18456;DHT22;9357;49.900;8.208;2023-05-07T09:32:23;19.30;99.90
18456;DHT22;9357;49.900;8.208;2023-05-07T09:33:57;19.40;99.90
18456;DHT22;9357;49.900;8.208;2023-05-07T09:35:30;19.40;99.90
18456;DHT22;9357;49.900;8.208;2023-05-07T09:37:04;19.40;99.90
18456;DHT22;9357;49.900;8.208;2023-05-07T09:38:37;19.50;99.90
18456;DHT22;9357;49.900;8.208;2023-05-07T09:40:20;19.50;99.90
18456;DHT22;9357;49.900;8.208;2023-05-07T09:41:53;19.60;99.90
18456;DHT22;9357;49.900;8.208;2023-05-07T09:43:26;19.50;99.90
18456;DHT22;9357;49.900;8.208;2023-05-07T09:44:59;19.40;99.90
18456;DHT22;9357;49.900;8.208;2023-05-07T09:46:33;19.40;99.90
18456;DHT22;9357;49.900;8.208;2023-05-07T09:48:08;19.50;99.90
18456;DHT22;9357;49.900;8.208;2023-05-07T09:49:43;19.50;99.90
18456;DHT22;9357;49.900;8.208;2023-05-07T09:51:24;19.60;99.90
18456;DHT22;9357;49.900;8.208;2023-05-07T09:52:58;19.60;99.90
18456;DHT22;9357;49.900;8.208;2023-05-07T09:54:31;19.70;99.90
18456;DHT22;9357;49.900;8.208;2023-05-07T09:56:07;19.70;99.90
18456;DHT22;9357;49.900;8.208;2023-05-07T09:57:40;19.80;99.90